createdAt,value
2022-08-26T00:02:13.383Z,21.70
2022-08-26T00:04:43.467Z,21.50
2022-08-26T00:07:11.838Z,21.50
2022-08-26T00:09:40.339Z,21.50
2022-08-26T00:12:12.373Z,21.50
2022-08-26T00:14:41.928Z,21.40
2022-08-26T00:17:12.027Z,21.40
2022-08-26T00:19:39.972Z,21.40
2022-08-26T00:22:08.350Z,21.40
2022-08-26T00:24:36.383Z,21.50
2022-08-26T00:27:04.717Z,21.50
2022-08-26T00:29:37.382Z,21.40
2022-08-26T00:32:07.099Z,21.30
2022-08-26T00:34:37.564Z,21.20
2022-08-26T00:37:09.382Z,21.30
2022-08-26T00:39:41.008Z,21.30
2022-08-26T00:42:09.447Z,21.30
2022-08-26T00:44:39.129Z,21.20
2022-08-26T00:47:23.155Z,21.20
2022-08-26T00:49:54.321Z,21.10
2022-08-26T00:52:25.164Z,21.20
2022-08-26T00:55:04.435Z,21.10
2022-08-26T00:57:34.981Z,21.10
2022-08-26T01:00:09.853Z,21.10
2022-08-26T01:02:38.906Z,21.10
2022-08-26T01:05:18.207Z,21.00
2022-08-26T01:07:47.034Z,21.00
2022-08-26T01:10:23.354Z,20.90
2022-08-26T01:13:01.609Z,20.80
2022-08-26T01:15:37.603Z,20.90
2022-08-26T01:18:06.370Z,20.80
2022-08-26T01:20:49.283Z,20.90
2022-08-26T01:23:18.915Z,20.70
2022-08-26T01:25:55.805Z,20.70
2022-08-26T01:28:29.883Z,20.80
2022-08-26T01:31:00.406Z,20.70
2022-08-26T01:33:42.245Z,20.60
2022-08-26T01:36:12.214Z,20.60
2022-08-26T01:38:42.623Z,20.50
2022-08-26T01:41:19.537Z,20.50
2022-08-26T01:43:54.128Z,20.50
2022-08-26T01:46:25.640Z,20.50
2022-08-26T01:48:59.488Z,20.40
2022-08-26T01:51:29.806Z,20.30
2022-08-26T01:53:59.573Z,20.20
2022-08-26T01:56:33.319Z,20.10
2022-08-26T01:59:12.219Z,20.20
2022-08-26T02:01:40.447Z,20.20
2022-08-26T02:04:20.036Z,20.20
2022-08-26T02:06:49.434Z,20.20
2022-08-26T02:09:21.257Z,20.10
2022-08-26T02:11:51.098Z,20.10
2022-08-26T02:14:23.602Z,20.10
2022-08-26T02:16:56.252Z,20.10
2022-08-26T02:19:30.294Z,20.00
2022-08-26T02:22:03.822Z,20.00
2022-08-26T02:24:51.315Z,20.00
2022-08-26T02:27:32.099Z,20.00
2022-08-26T02:30:11.923Z,19.90
2022-08-26T02:32:41.382Z,19.90
2022-08-26T02:35:10.954Z,19.90
2022-08-26T02:37:39.410Z,19.90
2022-08-26T02:40:15.072Z,19.90
2022-08-26T02:42:43.211Z,20.00
2022-08-26T02:45:12.965Z,20.00
2022-08-26T02:47:41.049Z,20.00
2022-08-26T02:50:09.322Z,20.10
2022-08-26T02:52:38.013Z,20.20
2022-08-26T02:55:08.644Z,20.20
2022-08-26T02:57:37.939Z,20.10
2022-08-26T03:00:10.706Z,20.00
2022-08-26T03:02:38.763Z,20.00
2022-08-26T03:05:08.403Z,20.00
2022-08-26T03:07:36.558Z,19.80
2022-08-26T03:10:08.303Z,19.80
2022-08-26T03:12:38.289Z,19.80
2022-08-26T03:15:16.561Z,19.80
2022-08-26T03:17:49.096Z,19.70
2022-08-26T03:20:19.541Z,19.50
2022-08-26T03:22:47.718Z,19.40
2022-08-26T03:25:18.180Z,19.30
2022-08-26T03:27:47.513Z,19.40
2022-08-26T03:30:34.597Z,19.30
2022-08-26T03:33:03.589Z,19.40
2022-08-26T03:35:33.877Z,19.40
2022-08-26T03:38:03.313Z,19.50
2022-08-26T03:40:33.701Z,19.40
2022-08-26T03:43:05.170Z,19.40
2022-08-26T03:45:34.503Z,19.20
2022-08-26T03:48:03.843Z,19.10
2022-08-26T03:50:34.246Z,19.00
2022-08-26T03:53:07.488Z,19.00
2022-08-26T03:55:41.304Z,19.00
2022-08-26T03:58:10.899Z,19.00
2022-08-26T04:00:39.338Z,19.10
2022-08-26T04:03:10.038Z,19.10
2022-08-26T04:05:38.911Z,19.20
2022-08-26T04:08:07.922Z,19.20
2022-08-26T04:10:38.489Z,19.20
2022-08-26T04:13:06.884Z,19.20
2022-08-26T04:15:36.413Z,19.20
2022-08-26T04:18:04.676Z,19.20
2022-08-26T04:20:32.878Z,19.20
2022-08-26T04:23:00.875Z,19.20
2022-08-26T04:25:28.889Z,19.20
2022-08-26T04:27:56.927Z,19.20
2022-08-26T04:30:25.550Z,19.20
2022-08-26T04:32:54.923Z,19.10
2022-08-26T04:35:26.031Z,19.10
2022-08-26T04:37:55.516Z,19.20
2022-08-26T04:40:24.161Z,19.20
2022-08-26T04:42:53.993Z,19.10
2022-08-26T04:45:22.637Z,19.10
2022-08-26T04:47:56.617Z,19.10
2022-08-26T04:50:26.972Z,19.20
2022-08-26T04:52:55.643Z,19.10
2022-08-26T04:55:29.025Z,19.10
2022-08-26T04:58:10.322Z,19.00
2022-08-26T05:00:39.450Z,19.10
2022-08-26T05:03:10.538Z,19.10
2022-08-26T05:05:41.282Z,19.10
2022-08-26T05:08:11.162Z,19.20
2022-08-26T05:10:44.408Z,19.20
2022-08-26T05:13:15.502Z,19.30
2022-08-26T05:15:45.580Z,19.30
2022-08-26T05:18:17.376Z,19.30
2022-08-26T05:20:51.241Z,19.40
2022-08-26T05:23:22.738Z,19.40
2022-08-26T05:25:58.977Z,19.40
2022-08-26T05:28:30.703Z,19.50
2022-08-26T05:30:58.895Z,19.50
2022-08-26T05:33:29.330Z,19.50
2022-08-26T05:35:57.299Z,19.60
2022-08-26T05:38:25.340Z,19.50
2022-08-26T05:40:58.621Z,19.50
2022-08-26T05:43:27.557Z,19.50
2022-08-26T05:45:56.154Z,19.50
2022-08-26T05:48:24.811Z,19.60
2022-08-26T05:50:54.878Z,19.60
2022-08-26T05:53:26.095Z,19.70
2022-08-26T05:55:55.979Z,19.70
2022-08-26T05:58:26.773Z,19.80
2022-08-26T06:01:01.427Z,19.80
2022-08-26T06:03:33.340Z,19.70
2022-08-26T06:06:07.940Z,19.70
2022-08-26T06:08:37.019Z,19.70
2022-08-26T06:11:08.365Z,19.80
2022-08-26T06:13:46.941Z,19.80
2022-08-26T06:16:19.568Z,19.90
2022-08-26T06:18:50.702Z,19.90
2022-08-26T06:21:25.050Z,20.00
2022-08-26T06:24:15.768Z,20.10
2022-08-26T06:26:51.072Z,20.20
2022-08-26T06:29:24.334Z,20.30
2022-08-26T06:31:53.855Z,20.40
2022-08-26T06:34:22.252Z,20.50
2022-08-26T06:36:53.104Z,20.60
2022-08-26T06:39:21.209Z,20.60
2022-08-26T06:41:49.567Z,20.70
2022-08-26T06:44:19.348Z,20.80
2022-08-26T06:46:50.570Z,20.80
2022-08-26T06:49:20.451Z,20.80
2022-08-26T06:51:58.906Z,20.90
2022-08-26T06:54:27.130Z,21.00
2022-08-26T06:56:56.798Z,21.10
2022-08-26T06:59:25.269Z,21.10
2022-08-26T07:01:54.695Z,21.20
2022-08-26T07:04:24.642Z,21.40
2022-08-26T07:06:54.086Z,21.50
2022-08-26T07:09:27.015Z,21.50
2022-08-26T07:11:57.063Z,21.60
2022-08-26T07:14:26.199Z,21.60
2022-08-26T07:16:55.080Z,21.60
2022-08-26T07:19:27.549Z,21.70
2022-08-26T07:21:59.225Z,21.80
2022-08-26T07:24:29.185Z,21.90
2022-08-26T07:27:01.899Z,22.00
2022-08-26T07:29:31.582Z,22.20
2022-08-26T07:32:00.736Z,22.30
2022-08-26T07:34:28.797Z,22.40
2022-08-26T07:36:58.842Z,22.60
2022-08-26T07:39:28.634Z,22.70
2022-08-26T07:42:00.293Z,22.80
2022-08-26T07:44:29.534Z,22.90
2022-08-26T07:46:57.574Z,22.90
2022-08-26T07:49:27.064Z,23.00
2022-08-26T07:51:57.017Z,23.20
2022-08-26T07:54:26.848Z,23.20
2022-08-26T07:56:56.804Z,23.30
2022-08-26T07:59:25.011Z,23.40
2022-08-26T08:01:53.941Z,23.50
2022-08-26T08:04:26.153Z,23.70
2022-08-26T08:06:55.433Z,23.80
2022-08-26T08:09:24.806Z,23.90
2022-08-26T08:11:53.839Z,24.00
2022-08-26T08:14:23.381Z,24.00
2022-08-26T08:16:54.850Z,24.20
2022-08-26T08:19:23.919Z,24.30
2022-08-26T08:21:57.795Z,24.40
2022-08-26T08:24:27.538Z,24.60
2022-08-26T08:26:56.173Z,24.80
2022-08-26T08:29:25.813Z,24.80
2022-08-26T08:31:57.987Z,24.90
2022-08-26T08:34:29.257Z,24.90
2022-08-26T08:36:58.375Z,25.00
2022-08-26T08:39:27.211Z,25.10
2022-08-26T08:42:37.773Z,25.20
2022-08-26T08:45:13.861Z,25.20
2022-08-26T08:47:47.603Z,25.20
2022-08-26T08:50:26.510Z,25.30
2022-08-26T08:53:09.221Z,25.40
2022-08-26T08:55:55.331Z,25.50
2022-08-26T08:58:35.744Z,25.60
2022-08-26T09:01:13.084Z,25.70
2022-08-26T09:03:52.021Z,25.80
2022-08-26T09:06:20.493Z,25.80
2022-08-26T09:08:51.291Z,26.00
2022-08-26T09:11:21.317Z,26.20
2022-08-26T09:13:55.279Z,26.30
2022-08-26T09:16:38.565Z,26.40
2022-08-26T09:19:22.711Z,26.60
2022-08-26T09:21:57.738Z,26.80
2022-08-26T09:24:28.330Z,26.90
2022-08-26T09:26:59.009Z,27.00
2022-08-26T09:29:30.708Z,27.00
2022-08-26T09:35:02.055Z,27.00
2022-08-26T09:37:59.514Z,27.00
2022-08-26T09:40:34.527Z,26.90
2022-08-26T09:43:11.228Z,26.90
2022-08-26T09:45:41.277Z,26.80
2022-08-26T09:48:32.070Z,26.80
2022-08-26T09:51:08.162Z,26.80
2022-08-26T09:53:51.367Z,26.80
2022-08-26T09:56:27.973Z,26.70
2022-08-26T09:58:58.424Z,26.60
2022-08-26T10:01:33.374Z,26.60
2022-08-26T10:04:10.234Z,26.60
2022-08-26T10:06:55.347Z,26.60
2022-08-26T10:09:25.757Z,26.60
2022-08-26T10:11:58.474Z,26.60
2022-08-26T10:14:33.496Z,26.60
2022-08-26T10:17:09.382Z,26.60
2022-08-26T10:19:56.519Z,26.60
2022-08-26T10:22:37.752Z,26.70
2022-08-26T10:25:13.918Z,26.70
2022-08-26T10:27:53.468Z,26.80
2022-08-26T10:30:30.185Z,26.80
2022-08-26T10:33:05.940Z,26.90
2022-08-26T10:35:38.048Z,27.10
2022-08-26T10:38:19.585Z,27.30
2022-08-26T10:40:59.284Z,27.50
2022-08-26T10:43:31.642Z,27.80
2022-08-26T10:46:06.980Z,28.00
2022-08-26T10:48:47.575Z,28.10
2022-08-26T10:51:28.089Z,28.30
2022-08-26T10:54:05.734Z,28.50
2022-08-26T10:56:46.925Z,28.80
2022-08-26T10:59:29.909Z,28.70
2022-08-26T11:02:12.715Z,28.70
2022-08-26T11:04:54.325Z,28.70
2022-08-26T11:07:41.802Z,28.80
2022-08-26T11:10:54.657Z,29.00
2022-08-26T11:14:02.437Z,29.20
2022-08-26T11:16:43.491Z,29.50
2022-08-26T11:19:59.006Z,29.60
2022-08-26T11:22:29.670Z,29.70
2022-08-26T11:25:12.231Z,29.70
2022-08-26T11:28:05.474Z,29.50
2022-08-26T11:30:56.814Z,29.60
2022-08-26T11:33:57.956Z,29.90
2022-08-26T11:36:59.064Z,30.20
2022-08-26T11:39:51.390Z,30.40
2022-08-26T11:42:36.942Z,30.60
2022-08-26T11:45:20.068Z,30.60
2022-08-26T11:47:49.354Z,30.50
2022-08-26T11:50:26.005Z,30.50
2022-08-26T11:53:03.954Z,30.40
2022-08-26T11:55:42.552Z,30.40
2022-08-26T11:58:15.607Z,30.40
2022-08-26T12:00:52.890Z,30.30
2022-08-26T12:03:26.926Z,30.30
2022-08-26T12:05:57.219Z,30.30
2022-08-26T12:08:29.100Z,30.20
2022-08-26T12:11:06.933Z,30.10
2022-08-26T12:13:39.115Z,30.00
2022-08-26T12:16:08.418Z,29.90
2022-08-26T12:18:39.558Z,29.80
2022-08-26T12:21:22.110Z,29.60
2022-08-26T12:23:55.556Z,29.60
2022-08-26T12:26:28.437Z,29.50
2022-08-26T12:29:09.405Z,29.50
2022-08-26T12:31:49.654Z,29.40
2022-08-26T12:34:19.071Z,29.20
2022-08-26T12:36:50.752Z,29.20
2022-08-26T12:39:29.067Z,29.20
2022-08-26T12:41:59.999Z,29.10
2022-08-26T12:44:53.328Z,29.00
2022-08-26T12:47:32.691Z,28.90
2022-08-26T12:50:19.461Z,28.70
2022-08-26T12:52:59.872Z,28.70
2022-08-26T12:55:39.911Z,28.60
2022-08-26T12:58:19.500Z,28.50
2022-08-26T13:00:50.307Z,28.60
2022-08-26T13:03:45.240Z,28.50
2022-08-26T13:06:29.894Z,28.50
2022-08-26T13:09:04.898Z,28.50
2022-08-26T13:11:52.910Z,28.60
2022-08-26T13:14:24.782Z,28.50
2022-08-26T13:16:54.956Z,28.50
2022-08-26T13:19:26.818Z,28.50
2022-08-26T13:21:58.310Z,28.50
2022-08-26T13:24:33.260Z,28.40
2022-08-26T13:27:02.548Z,28.40
2022-08-26T13:29:30.875Z,28.40
2022-08-26T13:32:01.195Z,28.30
2022-08-26T13:34:30.704Z,28.30
2022-08-26T13:36:59.197Z,28.30
2022-08-26T13:39:28.031Z,28.00
2022-08-26T13:41:56.305Z,28.10
2022-08-26T13:44:24.717Z,28.20
2022-08-26T13:46:52.748Z,27.90
2022-08-26T13:49:22.206Z,27.90
2022-08-26T13:51:50.171Z,28.00
2022-08-26T13:54:18.126Z,27.80
2022-08-26T13:56:46.075Z,27.80
2022-08-26T13:59:14.246Z,27.90
2022-08-26T14:01:42.270Z,28.00
2022-08-26T14:04:10.245Z,28.00
2022-08-26T14:06:39.568Z,27.80
2022-08-26T14:09:07.633Z,27.80
2022-08-26T14:11:54.024Z,27.70
2022-08-26T14:14:23.039Z,27.70
2022-08-26T14:16:58.735Z,27.60
2022-08-26T14:19:29.577Z,27.60
2022-08-26T14:22:01.786Z,27.50
2022-08-26T14:24:30.476Z,27.40
2022-08-26T14:26:58.722Z,27.30
2022-08-26T14:29:26.813Z,27.20
2022-08-26T14:31:57.274Z,27.00
2022-08-26T14:34:26.042Z,26.80
2022-08-26T14:36:54.055Z,26.70
2022-08-26T14:39:23.502Z,26.50
2022-08-26T14:41:57.066Z,26.70
2022-08-26T14:44:30.488Z,26.60
2022-08-26T14:47:03.036Z,26.60
2022-08-26T14:49:32.040Z,26.50
2022-08-26T14:52:00.636Z,26.50
2022-08-26T14:54:29.531Z,26.60
2022-08-26T14:57:03.483Z,26.50
2022-08-26T14:59:34.568Z,26.40
2022-08-26T15:02:02.989Z,26.50
2022-08-26T15:04:31.585Z,26.50
2022-08-26T15:07:01.213Z,26.50
2022-08-26T15:09:33.533Z,26.70
2022-08-26T15:12:02.373Z,26.70
2022-08-26T15:14:32.945Z,26.70
2022-08-26T15:17:01.256Z,26.90
2022-08-26T15:19:29.611Z,27.00
2022-08-26T15:21:57.620Z,27.00
2022-08-26T15:24:28.732Z,26.90
2022-08-26T15:26:58.632Z,27.00
2022-08-26T15:29:26.888Z,27.10
2022-08-26T15:31:55.269Z,26.80
2022-08-26T15:34:25.454Z,26.70
2022-08-26T15:36:53.925Z,26.70
2022-08-26T15:39:22.312Z,26.70
2022-08-26T15:41:51.806Z,26.70
2022-08-26T15:44:26.122Z,26.70
2022-08-26T15:46:58.450Z,26.70
2022-08-26T15:49:27.916Z,26.50
2022-08-26T15:51:56.052Z,26.50
2022-08-26T15:54:25.592Z,26.60
2022-08-26T15:56:53.845Z,26.70
2022-08-26T15:59:24.123Z,26.60
2022-08-26T16:01:52.715Z,26.60
2022-08-26T16:04:21.748Z,26.70
2022-08-26T16:06:52.129Z,26.70
2022-08-26T16:09:24.218Z,26.50
2022-08-26T16:11:52.850Z,26.30
2022-08-26T16:14:22.941Z,26.10
2022-08-26T16:16:51.839Z,25.90
2022-08-26T16:19:21.020Z,25.80
2022-08-26T16:21:51.358Z,25.70
2022-08-26T16:24:24.824Z,25.60
2022-08-26T16:26:54.498Z,25.60
2022-08-26T16:29:24.570Z,25.60
2022-08-26T16:31:54.545Z,25.50
2022-08-26T16:34:23.330Z,25.40
2022-08-26T16:36:52.210Z,25.40
2022-08-26T16:39:20.213Z,25.30
2022-08-26T16:41:48.255Z,25.40
2022-08-26T16:44:16.619Z,25.40
2022-08-26T16:46:46.487Z,25.30
2022-08-26T16:49:21.169Z,25.30
2022-08-26T16:51:49.481Z,25.30
2022-08-26T16:54:17.429Z,25.20
2022-08-26T16:56:46.707Z,25.10
2022-08-26T16:59:14.639Z,25.10
2022-08-26T17:01:42.754Z,24.90
2022-08-26T17:04:12.046Z,24.70
2022-08-26T17:06:40.027Z,24.80
2022-08-26T17:09:08.971Z,24.70
2022-08-26T17:11:37.067Z,24.60
2022-08-26T17:14:06.272Z,24.40
2022-08-26T17:16:34.327Z,24.20
2022-08-26T17:19:04.358Z,24.10
2022-08-26T17:21:35.191Z,23.90
2022-08-26T17:24:05.859Z,23.80
2022-08-26T17:26:34.143Z,23.70
2022-08-26T17:29:02.107Z,23.50
2022-08-26T17:31:30.096Z,23.40
2022-08-26T17:33:58.326Z,23.40
2022-08-26T17:36:28.207Z,23.20
2022-08-26T17:38:59.133Z,23.00
2022-08-26T17:41:27.984Z,22.90
2022-08-26T17:43:57.073Z,22.80
2022-08-26T17:46:25.403Z,22.70
2022-08-26T17:48:53.502Z,22.80
2022-08-26T17:51:23.464Z,22.60
2022-08-26T17:53:52.467Z,22.40
2022-08-26T17:56:25.475Z,22.20
2022-08-26T17:58:56.492Z,21.90
2022-08-26T18:01:28.098Z,21.80
2022-08-26T18:04:00.359Z,21.70
2022-08-26T18:06:31.233Z,21.50
2022-08-26T18:09:00.683Z,21.40
2022-08-26T18:11:31.223Z,21.60
2022-08-26T18:13:59.879Z,21.70
2022-08-26T18:16:29.866Z,21.70
2022-08-26T18:18:59.313Z,21.60
2022-08-26T18:21:28.849Z,21.40
2022-08-26T18:23:57.040Z,21.20
2022-08-26T18:26:28.866Z,21.20
2022-08-26T18:28:58.844Z,21.20
2022-08-26T18:31:27.411Z,21.20
2022-08-26T18:33:55.745Z,21.10
2022-08-26T18:36:29.820Z,21.20
2022-08-26T18:38:59.267Z,21.10
2022-08-26T18:41:31.467Z,21.00
2022-08-26T18:44:01.151Z,21.00
2022-08-26T18:46:29.530Z,20.90
2022-08-26T18:48:58.891Z,21.00
2022-08-26T18:51:30.531Z,20.90
2022-08-26T18:54:00.515Z,20.80
2022-08-26T18:56:30.010Z,20.90
2022-08-26T18:59:00.678Z,20.80
2022-08-26T19:01:31.406Z,20.70
2022-08-26T19:04:01.980Z,20.80
2022-08-26T19:06:35.548Z,20.80
2022-08-26T19:09:05.670Z,20.80
2022-08-26T19:11:38.340Z,20.80
2022-08-26T19:14:15.726Z,20.80
2022-08-26T19:16:47.221Z,20.70
2022-08-26T19:19:16.891Z,20.70
2022-08-26T19:21:44.976Z,20.80
2022-08-26T19:24:17.809Z,20.80
2022-08-26T19:26:49.049Z,20.80
2022-08-26T19:29:23.402Z,21.00
2022-08-26T19:31:51.341Z,21.10
2022-08-26T19:34:20.816Z,21.20
2022-08-26T19:36:51.692Z,21.20
2022-08-26T19:39:20.020Z,21.10
2022-08-26T19:41:48.172Z,20.90
2022-08-26T19:44:34.784Z,20.90
2022-08-26T19:47:03.911Z,21.00
2022-08-26T19:49:32.077Z,20.80
2022-08-26T19:52:00.407Z,20.70
2022-08-26T19:54:28.557Z,20.60
2022-08-26T19:56:56.831Z,20.60
2022-08-26T19:59:26.237Z,20.50
2022-08-26T20:02:01.146Z,20.60
2022-08-26T20:04:30.167Z,20.50
2022-08-26T20:07:00.391Z,20.60
2022-08-26T20:09:29.037Z,20.60
2022-08-26T20:11:57.280Z,20.60
2022-08-26T20:14:27.279Z,20.70
2022-08-26T20:16:55.353Z,20.70
2022-08-26T20:19:41.173Z,20.80
2022-08-26T20:22:09.855Z,20.80
2022-08-26T20:24:38.017Z,20.80
2022-08-26T20:27:07.939Z,20.80
2022-08-26T20:29:39.321Z,20.70
2022-08-26T20:32:08.851Z,20.50
2022-08-26T20:34:38.121Z,20.60
2022-08-26T20:37:08.303Z,20.60
2022-08-26T20:39:36.815Z,20.60
2022-08-26T20:42:06.823Z,20.50
2022-08-26T20:44:54.680Z,20.50
2022-08-26T20:47:23.501Z,20.50
2022-08-26T20:49:52.324Z,20.60
2022-08-26T20:52:20.977Z,20.50
2022-08-26T20:54:49.075Z,20.60
2022-08-26T20:57:17.165Z,20.50
2022-08-26T20:59:45.262Z,20.40
2022-08-26T21:02:14.616Z,20.50
2022-08-26T21:04:42.651Z,20.40
2022-08-26T21:07:10.676Z,20.60
2022-08-26T21:09:38.715Z,20.60
2022-08-26T21:12:07.051Z,20.40
2022-08-26T21:14:35.319Z,20.30
2022-08-26T21:17:03.864Z,20.30
2022-08-26T21:19:33.137Z,20.20
2022-08-26T21:22:01.171Z,20.20
2022-08-26T21:24:29.191Z,20.20
2022-08-26T21:26:57.145Z,20.20
2022-08-26T21:29:25.259Z,20.20
2022-08-26T21:31:53.505Z,20.20
2022-08-26T21:34:21.713Z,20.30
2022-08-26T21:36:51.004Z,20.30
2022-08-26T21:39:19.246Z,20.10
2022-08-26T21:41:48.167Z,20.20
2022-08-26T21:44:18.724Z,20.20
2022-08-26T21:46:49.011Z,20.30
2022-08-26T21:49:18.031Z,20.30
2022-08-26T21:51:49.184Z,20.30
2022-08-26T21:54:19.078Z,20.30
2022-08-26T21:56:48.978Z,20.40
2022-08-26T21:59:19.544Z,20.30
2022-08-26T22:01:48.314Z,20.30
2022-08-26T22:04:18.144Z,20.30
2022-08-26T22:06:49.368Z,20.30
2022-08-26T22:09:24.413Z,20.30
2022-08-26T22:11:53.712Z,20.20
2022-08-26T22:14:30.457Z,20.10
2022-08-26T22:17:00.480Z,20.10
2022-08-26T22:19:29.368Z,20.00
2022-08-26T22:21:57.662Z,19.90
2022-08-26T22:24:27.854Z,20.00
2022-08-26T22:26:57.101Z,20.00
2022-08-26T22:29:25.643Z,19.90
2022-08-26T22:31:54.217Z,19.90
2022-08-26T22:34:23.258Z,20.00
2022-08-26T22:36:51.796Z,20.00
2022-08-26T22:39:24.151Z,19.90
2022-08-26T22:41:56.761Z,20.00
2022-08-26T22:44:24.864Z,20.00
2022-08-26T22:46:55.130Z,20.00
2022-08-26T22:49:23.430Z,19.90
2022-08-26T22:51:51.899Z,19.90
2022-08-26T22:54:19.917Z,19.70
2022-08-26T22:56:48.004Z,19.70
2022-08-26T22:59:17.272Z,19.70
2022-08-26T23:01:46.777Z,19.70
2022-08-26T23:04:15.217Z,19.70
2022-08-26T23:06:47.775Z,19.70
2022-08-26T23:09:18.227Z,19.70
2022-08-26T23:11:48.404Z,19.80
2022-08-26T23:14:19.512Z,19.70
2022-08-26T23:16:48.241Z,19.80
2022-08-26T23:19:22.768Z,19.70
2022-08-26T23:21:51.564Z,19.70
2022-08-26T23:24:19.752Z,19.70
2022-08-26T23:26:47.820Z,19.70
2022-08-26T23:29:17.520Z,19.70
2022-08-26T23:31:45.955Z,19.80
2022-08-26T23:34:40.282Z,19.80
2022-08-26T23:37:09.840Z,19.90
2022-08-26T23:39:38.205Z,19.90
2022-08-26T23:42:08.178Z,19.90
2022-08-26T23:44:37.736Z,19.90
2022-08-26T23:47:07.918Z,19.80
2022-08-26T23:49:37.350Z,19.80
2022-08-26T23:52:24.695Z,19.70
2022-08-26T23:54:52.915Z,19.70
2022-08-26T23:57:24.982Z,19.70
2022-08-26T23:59:54.413Z,19.70
